THY7LB LTAC-LTFO
Flight info
| Callsign | THY7LB |
|---|---|
| Flight time | 1h 5m |
| Altitude | 37000 |
| Route | GOBIT UL614 JUPNE UT54 SIV UW706 TBN UN37 ZUBRE |
| Aircraft | A320/M-SDE3FGHIRWY/LB1 |
Departure
| Time | 2026-04-20 21:47 |
|---|---|
| Airport | Esenboğa International Airport (LTAC) |
Arrival
| Time | 2026-04-20 22:53 |
|---|---|
| Airport | Rize–Artvin Airport (LTFO) |
| Time | Latitude | Longitude | Altitude | Speed | Heading |
|---|---|---|---|---|---|
| 2026-04-20 21:37 | 40.11917 | 32.99294 | 3134 ft | 0 kts | 344° |
| 2026-04-20 21:40 | 40.11905 | 32.99298 | 3134 ft | 4 kts | 343° |
| 2026-04-20 21:40 | 40.11879 | 32.99310 | 3134 ft | 4 kts | 337° |
| 2026-04-20 21:40 | 40.11855 | 32.99325 | 3134 ft | 4 kts | 321° |
| 2026-04-20 21:40 | 40.11841 | 32.99349 | 3134 ft | 4 kts | 265° |
| 2026-04-20 21:41 | 40.11842 | 32.99355 | 3134 ft | 0 kts | 255° |
| 2026-04-20 21:43 | 40.11841 | 32.99354 | 3134 ft | 1 kts | 255° |
| 2026-04-20 21:43 | 40.11838 | 32.99339 | 3134 ft | 3 kts | 255° |
| 2026-04-20 21:43 | 40.11832 | 32.99306 | 3134 ft | 5 kts | 252° |
| 2026-04-20 21:43 | 40.11818 | 32.99259 | 3134 ft | 7 kts | 249° |
| 2026-04-20 21:44 | 40.11803 | 32.99195 | 3134 ft | 8 kts | 249° |
| 2026-04-20 21:44 | 40.11776 | 32.99120 | 3134 ft | 10 kts | 256° |
| 2026-04-20 21:44 | 40.11803 | 32.99032 | 3134 ft | 11 kts | 280° |
| 2026-04-20 21:44 | 40.11751 | 32.98958 | 3134 ft | 13 kts | 216° |
| 2026-04-20 21:45 | 40.11686 | 32.98870 | 3134 ft | 14 kts | 255° |
| 2026-04-20 21:45 | 40.11732 | 32.98756 | 3134 ft | 16 kts | 306° |
| 2026-04-20 21:45 | 40.11787 | 32.98655 | 3134 ft | 10 kts | 306° |
| 2026-04-20 21:45 | 40.11829 | 32.98578 | 3135 ft | 11 kts | 306° |
| 2026-04-20 21:46 | 40.11881 | 32.98498 | 3136 ft | 12 kts | 332° |
| 2026-04-20 21:46 | 40.11962 | 32.98538 | 3136 ft | 14 kts | 36° |
| 2026-04-20 21:46 | 40.12102 | 32.98671 | 3137 ft | 51 kts | 36° |
| 2026-04-20 21:46 | 40.12569 | 32.99118 | 3135 ft | 112 kts | 36° |
| 2026-04-20 21:47 | 40.13332 | 32.99841 | 3137 ft | 157 kts | 35° |
| 2026-04-20 21:47 | 40.14227 | 33.00701 | 3583 ft | 160 kts | 37° |
| 2026-04-20 21:47 | 40.15104 | 33.01625 | 4142 ft | 164 kts | 39° |
| 2026-04-20 21:47 | 40.15985 | 33.02574 | 4738 ft | 165 kts | 38° |
| 2026-04-20 21:48 | 40.16885 | 33.03544 | 5119 ft | 175 kts | 38° |
| 2026-04-20 21:48 | 40.17888 | 33.04610 | 5343 ft | 197 kts | 37° |
| 2026-04-20 21:48 | 40.19019 | 33.05804 | 5569 ft | 222 kts | 37° |
| 2026-04-20 21:48 | 40.20287 | 33.07133 | 5902 ft | 245 kts | 38° |
| 2026-04-20 21:49 | 40.21362 | 33.08925 | 6495 ft | 259 kts | 70° |
| 2026-04-20 21:49 | 40.21499 | 33.11331 | 6974 ft | 279 kts | 105° |
| 2026-04-20 21:49 | 40.20591 | 33.13590 | 7633 ft | 286 kts | 130° |
| 2026-04-20 21:49 | 40.19215 | 33.15495 | 8462 ft | 290 kts | 137° |
| 2026-04-20 21:50 | 40.17727 | 33.17310 | 9287 ft | 295 kts | 137° |
| 2026-04-20 21:50 | 40.16239 | 33.19194 | 10074 ft | 300 kts | 135° |
| 2026-04-20 21:50 | 40.14759 | 33.21232 | 10422 ft | 321 kts | 132° |
| 2026-04-20 21:50 | 40.13236 | 33.23505 | 10625 ft | 343 kts | 130° |
| 2026-04-20 21:51 | 40.11690 | 33.25957 | 11087 ft | 354 kts | 129° |
| 2026-04-20 21:51 | 40.10152 | 33.28496 | 11760 ft | 359 kts | 128° |
| 2026-04-20 21:51 | 40.08611 | 33.31080 | 12470 ft | 362 kts | 128° |
| 2026-04-20 21:51 | 40.07074 | 33.33660 | 12898 ft | 366 kts | 128° |
| 2026-04-20 21:52 | 40.05511 | 33.36277 | 12999 ft | 365 kts | 128° |
| 2026-04-20 21:52 | 40.03940 | 33.38887 | 13004 ft | 365 kts | 128° |
| 2026-04-20 21:52 | 40.02366 | 33.41489 | 13021 ft | 367 kts | 128° |
| 2026-04-20 21:52 | 40.00802 | 33.44138 | 13681 ft | 370 kts | 126° |
| 2026-04-20 21:53 | 39.99311 | 33.46886 | 14334 ft | 373 kts | 124° |
| 2026-04-20 21:53 | 39.97843 | 33.49744 | 14964 ft | 376 kts | 123° |
| 2026-04-20 21:53 | 39.96405 | 33.52603 | 15583 ft | 379 kts | 123° |
| 2026-04-20 21:53 | 39.94971 | 33.55442 | 16189 ft | 382 kts | 123° |
| 2026-04-20 21:54 | 39.93494 | 33.58336 | 16797 ft | 385 kts | 124° |
| 2026-04-20 21:54 | 39.91996 | 33.61242 | 17413 ft | 388 kts | 124° |
| 2026-04-20 21:54 | 39.90478 | 33.64165 | 18031 ft | 391 kts | 124° |
| 2026-04-20 21:54 | 39.88942 | 33.67108 | 18605 ft | 395 kts | 124° |
| 2026-04-20 21:55 | 39.87390 | 33.70071 | 19170 ft | 398 kts | 124° |
| 2026-04-20 21:55 | 39.85827 | 33.73060 | 19750 ft | 401 kts | 124° |
| 2026-04-20 21:55 | 39.84250 | 33.76076 | 20331 ft | 404 kts | 124° |
| 2026-04-20 21:55 | 39.82660 | 33.79108 | 20894 ft | 407 kts | 125° |
| 2026-04-20 21:56 | 39.81052 | 33.82157 | 21432 ft | 410 kts | 125° |
| 2026-04-20 21:56 | 39.79429 | 33.85227 | 21958 ft | 413 kts | 125° |
| 2026-04-20 21:56 | 39.77878 | 33.88386 | 22468 ft | 417 kts | 118° |
| 2026-04-20 21:56 | 39.76708 | 33.91843 | 22973 ft | 420 kts | 110° |
| 2026-04-20 21:57 | 39.75711 | 33.95426 | 23477 ft | 423 kts | 110° |
| 2026-04-20 21:57 | 39.74700 | 33.99031 | 23902 ft | 426 kts | 110° |
| 2026-04-20 21:57 | 39.73676 | 34.02660 | 24299 ft | 429 kts | 110° |
| 2026-04-20 21:57 | 39.72641 | 34.06304 | 24690 ft | 432 kts | 110° |
| 2026-04-20 21:58 | 39.71598 | 34.09970 | 25086 ft | 434 kts | 110° |
| 2026-04-20 21:58 | 39.70547 | 34.13662 | 25461 ft | 437 kts | 110° |
| 2026-04-20 21:58 | 39.69488 | 34.17378 | 25828 ft | 440 kts | 110° |
| 2026-04-20 21:58 | 39.68419 | 34.21111 | 26202 ft | 443 kts | 110° |
| 2026-04-20 21:59 | 39.67342 | 34.24868 | 26558 ft | 445 kts | 110° |
| 2026-04-20 21:59 | 39.66258 | 34.28648 | 26911 ft | 448 kts | 110° |
| 2026-04-20 21:59 | 39.65169 | 34.32452 | 27279 ft | 451 kts | 110° |
| 2026-04-20 21:59 | 39.64123 | 34.36298 | 27636 ft | 453 kts | 105° |
| 2026-04-20 22:00 | 39.63461 | 34.40299 | 27983 ft | 455 kts | 96° |
| 2026-04-20 22:00 | 39.63277 | 34.44385 | 28326 ft | 457 kts | 87° |
| 2026-04-20 22:00 | 39.63555 | 34.48487 | 28657 ft | 458 kts | 81° |
| 2026-04-20 22:00 | 39.63947 | 34.52611 | 28992 ft | 461 kts | 81° |
| 2026-04-20 22:01 | 39.64332 | 34.56746 | 29321 ft | 463 kts | 82° |
| 2026-04-20 22:01 | 39.64713 | 34.60915 | 29661 ft | 466 kts | 82° |
| 2026-04-20 22:01 | 39.65091 | 34.65100 | 30028 ft | 468 kts | 82° |
| 2026-04-20 22:01 | 39.65402 | 34.68579 | 30352 ft | 467 kts | 82° |
| 2026-04-20 22:02 | 39.65779 | 34.72760 | 30756 ft | 466 kts | 82° |
| 2026-04-20 22:02 | 39.66154 | 34.76941 | 31171 ft | 466 kts | 82° |
| 2026-04-20 22:02 | 39.66524 | 34.81112 | 31574 ft | 465 kts | 82° |
| 2026-04-20 22:02 | 39.66892 | 34.85286 | 31969 ft | 465 kts | 82° |
| 2026-04-20 22:03 | 39.67258 | 34.89461 | 32370 ft | 465 kts | 83° |
| 2026-04-20 22:03 | 39.67625 | 34.93625 | 32769 ft | 465 kts | 83° |
| 2026-04-20 22:03 | 39.67995 | 34.97798 | 33169 ft | 465 kts | 83° |
| 2026-04-20 22:03 | 39.68364 | 35.01961 | 33569 ft | 464 kts | 83° |
| 2026-04-20 22:04 | 39.68731 | 35.06126 | 33980 ft | 464 kts | 83° |
| 2026-04-20 22:04 | 39.69093 | 35.10290 | 34312 ft | 465 kts | 83° |
| 2026-04-20 22:04 | 39.69450 | 35.14461 | 34599 ft | 465 kts | 83° |
| 2026-04-20 22:04 | 39.69807 | 35.18638 | 34895 ft | 466 kts | 83° |
| 2026-04-20 22:05 | 39.70166 | 35.22822 | 35180 ft | 466 kts | 83° |
| 2026-04-20 22:05 | 39.70523 | 35.27008 | 35458 ft | 467 kts | 83° |
| 2026-04-20 22:05 | 39.70880 | 35.31202 | 35729 ft | 468 kts | 83° |
| 2026-04-20 22:05 | 39.71235 | 35.35404 | 35995 ft | 468 kts | 83° |
| 2026-04-20 22:06 | 39.71589 | 35.39619 | 36260 ft | 469 kts | 83° |
| 2026-04-20 22:06 | 39.71944 | 35.43834 | 36521 ft | 470 kts | 83° |
| 2026-04-20 22:06 | 39.72297 | 35.48053 | 36775 ft | 470 kts | 83° |
| 2026-04-20 22:06 | 39.72648 | 35.52285 | 36989 ft | 471 kts | 83° |
| 2026-04-20 22:07 | 39.72999 | 35.56528 | 37046 ft | 475 kts | 83° |
| 2026-04-20 22:07 | 39.73702 | 35.65092 | 37046 ft | 477 kts | 83° |
| 2026-04-20 22:08 | 39.74397 | 35.73669 | 37051 ft | 478 kts | 84° |
| 2026-04-20 22:08 | 39.75079 | 35.82250 | 37057 ft | 477 kts | 84° |
| 2026-04-20 22:09 | 39.75760 | 35.90835 | 37057 ft | 477 kts | 84° |
| 2026-04-20 22:09 | 39.76435 | 35.99423 | 37075 ft | 478 kts | 84° |
| 2026-04-20 22:10 | 39.77107 | 36.08003 | 37067 ft | 478 kts | 84° |
| 2026-04-20 22:10 | 39.77777 | 36.16599 | 37071 ft | 478 kts | 84° |
| 2026-04-20 22:11 | 39.78412 | 36.25154 | 37076 ft | 478 kts | 85° |
| 2026-04-20 22:11 | 39.78669 | 36.33806 | 37079 ft | 479 kts | 89° |
| 2026-04-20 22:12 | 39.78633 | 36.42459 | 37092 ft | 479 kts | 90° |
| 2026-04-20 22:12 | 39.78616 | 36.51117 | 37087 ft | 479 kts | 90° |
| 2026-04-20 22:13 | 39.78689 | 36.59780 | 37067 ft | 479 kts | 89° |
| 2026-04-20 22:13 | 39.78777 | 36.66980 | 37058 ft | 479 kts | 89° |
| 2026-04-20 22:14 | 39.78862 | 36.75647 | 37050 ft | 479 kts | 89° |
| 2026-04-20 22:14 | 39.78988 | 36.84315 | 37048 ft | 479 kts | 84° |
| 2026-04-20 22:15 | 39.80586 | 36.92674 | 37051 ft | 477 kts | 65° |
| 2026-04-20 22:15 | 39.83713 | 37.00264 | 37046 ft | 475 kts | 59° |
| 2026-04-20 22:16 | 39.86945 | 37.07719 | 37052 ft | 476 kts | 59° |
| 2026-04-20 22:16 | 39.90210 | 37.15289 | 37068 ft | 476 kts | 59° |
| 2026-04-20 22:17 | 39.93439 | 37.22768 | 37074 ft | 476 kts | 59° |
| 2026-04-20 22:17 | 39.96679 | 37.30299 | 37083 ft | 477 kts | 59° |
| 2026-04-20 22:18 | 39.99918 | 37.37837 | 37083 ft | 476 kts | 59° |
| 2026-04-20 22:18 | 40.03153 | 37.45382 | 37090 ft | 476 kts | 59° |
| 2026-04-20 22:19 | 40.06377 | 37.52931 | 37093 ft | 476 kts | 59° |
| 2026-04-20 22:19 | 40.09589 | 37.60486 | 37091 ft | 476 kts | 59° |
| 2026-04-20 22:20 | 40.12819 | 37.68025 | 37088 ft | 475 kts | 59° |
| 2026-04-20 22:20 | 40.16057 | 37.75562 | 37082 ft | 475 kts | 59° |
| 2026-04-20 22:21 | 40.19282 | 37.83106 | 37081 ft | 475 kts | 59° |
| 2026-04-20 22:21 | 40.22496 | 37.90669 | 37089 ft | 475 kts | 59° |
| 2026-04-20 22:22 | 40.25703 | 37.98230 | 37086 ft | 475 kts | 59° |
| 2026-04-20 22:22 | 40.28898 | 38.05797 | 37083 ft | 474 kts | 59° |
| 2026-04-20 22:23 | 40.32071 | 38.13314 | 37071 ft | 474 kts | 59° |
| 2026-04-20 22:23 | 40.35217 | 38.20914 | 37065 ft | 474 kts | 61° |
| 2026-04-20 22:24 | 40.38264 | 38.28586 | 37063 ft | 474 kts | 61° |
| 2026-04-20 22:24 | 40.41427 | 38.36188 | 37059 ft | 474 kts | 59° |
| 2026-04-20 22:25 | 40.44713 | 38.43683 | 37065 ft | 474 kts | 58° |
| 2026-04-20 22:25 | 40.47990 | 38.51182 | 37064 ft | 473 kts | 59° |
| 2026-04-20 22:26 | 40.51215 | 38.58724 | 37062 ft | 473 kts | 60° |
| 2026-04-20 22:26 | 40.54349 | 38.66332 | 37067 ft | 473 kts | 61° |
| 2026-04-20 22:27 | 40.58970 | 38.77808 | 37062 ft | 473 kts | 61° |
| 2026-04-20 22:27 | 40.62067 | 38.85452 | 37066 ft | 473 kts | 61° |
| 2026-04-20 22:28 | 40.65168 | 38.93091 | 37078 ft | 473 kts | 61° |
| 2026-04-20 22:28 | 40.68230 | 39.00677 | 37081 ft | 472 kts | 61° |
| 2026-04-20 22:29 | 40.71322 | 39.08374 | 37073 ft | 472 kts | 61° |
| 2026-04-20 22:29 | 40.74365 | 39.15980 | 37073 ft | 472 kts | 61° |
| 2026-04-20 22:30 | 40.77423 | 39.23631 | 37065 ft | 471 kts | 62° |
| 2026-04-20 22:30 | 40.80474 | 39.31291 | 37071 ft | 471 kts | 62° |
| 2026-04-20 22:31 | 40.83519 | 39.38953 | 37037 ft | 472 kts | 62° |
| 2026-04-20 22:31 | 40.85043 | 39.42788 | 36783 ft | 471 kts | 62° |
| 2026-04-20 22:31 | 40.86561 | 39.46611 | 36534 ft | 469 kts | 62° |
| 2026-04-20 22:32 | 40.88072 | 39.50429 | 36237 ft | 468 kts | 62° |
| 2026-04-20 22:32 | 40.89583 | 39.54255 | 35485 ft | 471 kts | 62° |
| 2026-04-20 22:32 | 40.91101 | 39.58107 | 34632 ft | 474 kts | 62° |
| 2026-04-20 22:32 | 40.92628 | 39.61987 | 33680 ft | 477 kts | 62° |
| 2026-04-20 22:33 | 40.94177 | 39.65920 | 32724 ft | 476 kts | 62° |
| 2026-04-20 22:33 | 40.95688 | 39.69760 | 31761 ft | 476 kts | 62° |
| 2026-04-20 22:33 | 40.97215 | 39.73647 | 30995 ft | 473 kts | 62° |
| 2026-04-20 22:33 | 40.98714 | 39.77470 | 30461 ft | 465 kts | 62° |
| 2026-04-20 22:34 | 41.00181 | 39.81268 | 29816 ft | 461 kts | 63° |
| 2026-04-20 22:34 | 41.01556 | 39.85067 | 29216 ft | 454 kts | 65° |
| 2026-04-20 22:34 | 41.02853 | 39.88849 | 28629 ft | 448 kts | 66° |
| 2026-04-20 22:34 | 41.04101 | 39.92600 | 28037 ft | 443 kts | 66° |
| 2026-04-20 22:35 | 41.05331 | 39.96317 | 27473 ft | 438 kts | 66° |
| 2026-04-20 22:35 | 41.06555 | 39.99988 | 26905 ft | 433 kts | 66° |
| 2026-04-20 22:35 | 41.07780 | 40.03618 | 26343 ft | 430 kts | 66° |
| 2026-04-20 22:35 | 41.09003 | 40.07209 | 25791 ft | 426 kts | 66° |
| 2026-04-20 22:36 | 41.10224 | 40.10770 | 25241 ft | 423 kts | 66° |
| 2026-04-20 22:36 | 41.11434 | 40.14300 | 24701 ft | 420 kts | 66° |
| 2026-04-20 22:36 | 41.12640 | 40.17818 | 24179 ft | 417 kts | 66° |
| 2026-04-20 22:36 | 41.13832 | 40.21309 | 23664 ft | 415 kts | 66° |
| 2026-04-20 22:37 | 41.15012 | 40.24785 | 23111 ft | 412 kts | 66° |
| 2026-04-20 22:37 | 41.16178 | 40.28229 | 22624 ft | 407 kts | 66° |
| 2026-04-20 22:37 | 41.17333 | 40.31646 | 22137 ft | 404 kts | 66° |
| 2026-04-20 22:37 | 41.18477 | 40.35035 | 21666 ft | 401 kts | 66° |
| 2026-04-20 22:38 | 41.19606 | 40.38380 | 21186 ft | 398 kts | 66° |
| 2026-04-20 22:38 | 41.20816 | 40.41672 | 20705 ft | 396 kts | 60° |
| 2026-04-20 22:38 | 41.22232 | 40.44795 | 20213 ft | 393 kts | 59° |
| 2026-04-20 22:38 | 41.23637 | 40.47894 | 19715 ft | 391 kts | 59° |
| 2026-04-20 22:39 | 41.25033 | 40.50988 | 19202 ft | 389 kts | 59° |
| 2026-04-20 22:39 | 41.26421 | 40.54067 | 18686 ft | 387 kts | 59° |
| 2026-04-20 22:39 | 41.27803 | 40.57133 | 18131 ft | 386 kts | 59° |
| 2026-04-20 22:39 | 41.29177 | 40.60183 | 17582 ft | 383 kts | 59° |
| 2026-04-20 22:40 | 41.30533 | 40.63202 | 17049 ft | 379 kts | 59° |
| 2026-04-20 22:40 | 41.31878 | 40.66194 | 16519 ft | 375 kts | 59° |
| 2026-04-20 22:40 | 41.33212 | 40.69163 | 15992 ft | 372 kts | 59° |
| 2026-04-20 22:40 | 41.34532 | 40.72105 | 15458 ft | 369 kts | 59° |
| 2026-04-20 22:41 | 41.35842 | 40.75026 | 14941 ft | 366 kts | 59° |
| 2026-04-20 22:41 | 41.37145 | 40.77933 | 14343 ft | 366 kts | 59° |
| 2026-04-20 22:41 | 41.38446 | 40.80839 | 13805 ft | 364 kts | 59° |
| 2026-04-20 22:41 | 41.39722 | 40.83729 | 13242 ft | 361 kts | 62° |
| 2026-04-20 22:42 | 41.40671 | 40.86798 | 12706 ft | 356 kts | 74° |
| 2026-04-20 22:42 | 41.41174 | 40.90012 | 12183 ft | 353 kts | 80° |
| 2026-04-20 22:42 | 41.41606 | 40.93215 | 11660 ft | 350 kts | 80° |
| 2026-04-20 22:42 | 41.42036 | 40.96363 | 11140 ft | 339 kts | 80° |
| 2026-04-20 22:43 | 41.42449 | 40.99386 | 10651 ft | 329 kts | 80° |
| 2026-04-20 22:43 | 41.42857 | 41.02360 | 10388 ft | 321 kts | 80° |
| 2026-04-20 22:43 | 41.43244 | 41.05187 | 10251 ft | 298 kts | 80° |
| 2026-04-20 22:43 | 41.43555 | 41.07814 | 10129 ft | 276 kts | 88° |
| 2026-04-20 22:44 | 41.43391 | 41.10256 | 9964 ft | 257 kts | 105° |
| 2026-04-20 22:44 | 41.42743 | 41.12427 | 9609 ft | 251 kts | 122° |
| 2026-04-20 22:44 | 41.41677 | 41.14248 | 9357 ft | 251 kts | 136° |
| 2026-04-20 22:44 | 41.40265 | 41.15667 | 8840 ft | 253 kts | 147° |
| 2026-04-20 22:45 | 41.38813 | 41.16930 | 8379 ft | 249 kts | 147° |
| 2026-04-20 22:45 | 41.37355 | 41.18212 | 7831 ft | 250 kts | 147° |
| 2026-04-20 22:45 | 41.35954 | 41.19449 | 7642 ft | 235 kts | 147° |
| 2026-04-20 22:45 | 41.34567 | 41.20541 | 7528 ft | 231 kts | 159° |
| 2026-04-20 22:46 | 41.32988 | 41.20915 | 7463 ft | 232 kts | 183° |
| 2026-04-20 22:46 | 41.31423 | 41.20410 | 7149 ft | 236 kts | 207° |
| 2026-04-20 22:46 | 41.30116 | 41.19105 | 6672 ft | 235 kts | 222° |
| 2026-04-20 22:46 | 41.28909 | 41.17663 | 6264 ft | 232 kts | 221° |
| 2026-04-20 22:47 | 41.27713 | 41.16260 | 5847 ft | 225 kts | 221° |
| 2026-04-20 22:47 | 41.26570 | 41.14927 | 5476 ft | 214 kts | 221° |
| 2026-04-20 22:47 | 41.25576 | 41.13571 | 5146 ft | 197 kts | 235° |
| 2026-04-20 22:47 | 41.24977 | 41.12001 | 4794 ft | 186 kts | 248° |
| 2026-04-20 22:48 | 41.24533 | 41.10411 | 4486 ft | 182 kts | 251° |
| 2026-04-20 22:48 | 41.24118 | 41.08822 | 4190 ft | 181 kts | 251° |
| 2026-04-20 22:48 | 41.23712 | 41.07242 | 3886 ft | 180 kts | 251° |
| 2026-04-20 22:48 | 41.23311 | 41.05673 | 3582 ft | 179 kts | 251° |
| 2026-04-20 22:49 | 41.22913 | 41.04115 | 3301 ft | 178 kts | 251° |
| 2026-04-20 22:49 | 41.22517 | 41.02568 | 3014 ft | 176 kts | 251° |
| 2026-04-20 22:49 | 41.22124 | 41.01030 | 2733 ft | 175 kts | 251° |
| 2026-04-20 22:49 | 41.21732 | 40.99500 | 2453 ft | 174 kts | 251° |
| 2026-04-20 22:50 | 41.21346 | 40.97991 | 2175 ft | 169 kts | 251° |
| 2026-04-20 22:50 | 41.20979 | 40.96559 | 1936 ft | 160 kts | 251° |
| 2026-04-20 22:50 | 41.20628 | 40.95191 | 1662 ft | 149 kts | 251° |
| 2026-04-20 22:50 | 41.20302 | 40.93918 | 1417 ft | 143 kts | 251° |
| 2026-04-20 22:51 | 41.19983 | 40.92678 | 1179 ft | 141 kts | 251° |
| 2026-04-20 22:51 | 41.19669 | 40.91454 | 949 ft | 140 kts | 251° |
| 2026-04-20 22:51 | 41.19356 | 40.90235 | 727 ft | 139 kts | 251° |
| 2026-04-20 22:51 | 41.19044 | 40.89018 | 513 ft | 139 kts | 251° |
| 2026-04-20 22:52 | 41.18735 | 40.87806 | 302 ft | 139 kts | 251° |
| 2026-04-20 22:52 | 41.18425 | 40.86595 | 88 ft | 139 kts | 251° |
| 2026-04-20 22:52 | 41.18131 | 40.85454 | 30 ft | 121 kts | 251° |
| 2026-04-20 22:52 | 41.17904 | 40.84574 | 24 ft | 77 kts | 251° |
| 2026-04-20 22:53 | 41.17777 | 40.84079 | 27 ft | 48 kts | 251° |
| 2026-04-20 22:53 | 41.17675 | 40.83683 | 27 ft | 39 kts | 251° |
| 2026-04-20 22:53 | 41.17592 | 40.83368 | 28 ft | 19 kts | 240° |
| 2026-04-20 22:53 | 41.17514 | 40.83262 | 26 ft | 12 kts | 266° |
| 2026-04-20 22:54 | 41.17569 | 40.83267 | 27 ft | 13 kts | 73° |
| 2026-04-20 22:54 | 41.17597 | 40.83395 | 25 ft | 16 kts | 73° |
| 2026-04-20 22:54 | 41.17630 | 40.83545 | 27 ft | 18 kts | 73° |
| 2026-04-20 22:54 | 41.17678 | 40.83712 | 27 ft | 21 kts | 68° |
| 2026-04-20 22:55 | 41.17728 | 40.83902 | 29 ft | 23 kts | 72° |
| 2026-04-20 22:55 | 41.17784 | 40.84119 | 26 ft | 27 kts | 69° |
| 2026-04-20 22:55 | 41.17846 | 40.84352 | 25 ft | 22 kts | 79° |
| 2026-04-20 22:55 | 41.17760 | 40.84446 | 25 ft | 18 kts | 163° |
| 2026-04-20 22:56 | 41.17645 | 40.84494 | 25 ft | 12 kts | 161° |
| 2026-04-20 22:56 | 41.17613 | 40.84437 | 26 ft | 9 kts | 253° |
| 2026-04-20 22:56 | 41.17561 | 40.84412 | 28 ft | 6 kts | 166° |
| 2026-04-20 22:56 | 41.17545 | 40.84417 | 25 ft | 3 kts | 165° |
| 2026-04-20 22:57 | 41.17543 | 40.84418 | 25 ft | 0 kts | 165° |